sensor_id;sensor_type;location;lat;lon;timestamp;P1;durP1;ratioP1;P2;durP2;ratioP2
14611;SDS011;7392;52.078;11.650;2023-02-11T00:01:04;31.67;;;22.20;;
14611;SDS011;7392;52.078;11.650;2023-02-11T00:03:33;29.23;;;21.40;;
14611;SDS011;7392;52.078;11.650;2023-02-11T00:06:02;29.07;;;20.07;;
14611;SDS011;7392;52.078;11.650;2023-02-11T00:08:35;29.63;;;20.70;;
14611;SDS011;7392;52.078;11.650;2023-02-11T00:11:04;32.47;;;21.93;;
14611;SDS011;7392;52.078;11.650;2023-02-11T00:13:32;29.97;;;20.80;;
14611;SDS011;7392;52.078;11.650;2023-02-11T00:16:04;26.70;;;20.03;;
14611;SDS011;7392;52.078;11.650;2023-02-11T00:18:33;31.27;;;22.10;;
14611;SDS011;7392;52.078;11.650;2023-02-11T00:21:04;27.40;;;20.63;;
14611;SDS011;7392;52.078;11.650;2023-02-11T00:23:33;30.77;;;20.90;;
14611;SDS011;7392;52.078;11.650;2023-02-11T00:26:02;27.93;;;19.73;;
14611;SDS011;7392;52.078;11.650;2023-02-11T00:28:38;27.50;;;20.50;;
14611;SDS011;7392;52.078;11.650;2023-02-11T00:31:09;27.70;;;20.70;;
14611;SDS011;7392;52.078;11.650;2023-02-11T00:33:37;28.83;;;20.10;;
14611;SDS011;7392;52.078;11.650;2023-02-11T00:36:05;24.97;;;19.33;;
14611;SDS011;7392;52.078;11.650;2023-02-11T00:38:34;27.00;;;18.13;;
14611;SDS011;7392;52.078;11.650;2023-02-11T00:41:03;23.30;;;18.47;;
14611;SDS011;7392;52.078;11.650;2023-02-11T00:43:31;21.50;;;16.57;;
14611;SDS011;7392;52.078;11.650;2023-02-11T00:45:58;21.53;;;16.97;;
14611;SDS011;7392;52.078;11.650;2023-02-11T00:48:26;30.63;;;21.33;;
14611;SDS011;7392;52.078;11.650;2023-02-11T00:50:54;28.10;;;21.73;;
14611;SDS011;7392;52.078;11.650;2023-02-11T00:53:22;28.03;;;21.27;;
14611;SDS011;7392;52.078;11.650;2023-02-11T00:55:50;29.77;;;21.53;;
14611;SDS011;7392;52.078;11.650;2023-02-11T00:58:20;29.73;;;22.07;;
14611;SDS011;7392;52.078;11.650;2023-02-11T01:00:48;28.53;;;21.33;;
14611;SDS011;7392;52.078;11.650;2023-02-11T01:03:16;29.60;;;22.40;;
14611;SDS011;7392;52.078;11.650;2023-02-11T01:05:44;27.33;;;20.70;;
14611;SDS011;7392;52.078;11.650;2023-02-11T01:08:11;28.93;;;21.10;;
14611;SDS011;7392;52.078;11.650;2023-02-11T01:10:39;30.03;;;21.57;;
14611;SDS011;7392;52.078;11.650;2023-02-11T01:13:07;28.70;;;21.17;;
14611;SDS011;7392;52.078;11.650;2023-02-11T01:15:36;27.50;;;21.50;;
14611;SDS011;7392;52.078;11.650;2023-02-11T01:18:04;30.03;;;22.13;;
14611;SDS011;7392;52.078;11.650;2023-02-11T01:20:32;33.60;;;24.77;;
14611;SDS011;7392;52.078;11.650;2023-02-11T01:22:59;34.03;;;25.03;;
14611;SDS011;7392;52.078;11.650;2023-02-11T01:25:27;35.20;;;24.93;;
14611;SDS011;7392;52.078;11.650;2023-02-11T01:27:55;32.37;;;25.87;;
14611;SDS011;7392;52.078;11.650;2023-02-11T01:30:22;38.47;;;26.13;;
14611;SDS011;7392;52.078;11.650;2023-02-11T01:32:51;39.47;;;28.33;;
14611;SDS011;7392;52.078;11.650;2023-02-11T01:35:19;34.23;;;24.30;;
14611;SDS011;7392;52.078;11.650;2023-02-11T01:37:47;36.40;;;25.90;;
14611;SDS011;7392;52.078;11.650;2023-02-11T01:40:15;30.90;;;24.07;;
14611;SDS011;7392;52.078;11.650;2023-02-11T01:42:44;32.80;;;24.53;;
14611;SDS011;7392;52.078;11.650;2023-02-11T01:48:25;36.67;;;27.70;;
14611;SDS011;7392;52.078;11.650;2023-02-11T01:50:57;38.20;;;25.90;;
14611;SDS011;7392;52.078;11.650;2023-02-11T01:53:30;35.40;;;26.07;;
14611;SDS011;7392;52.078;11.650;2023-02-11T01:56:18;33.60;;;26.73;;
14611;SDS011;7392;52.078;11.650;2023-02-11T01:59:06;35.93;;;25.90;;
14611;SDS011;7392;52.078;11.650;2023-02-11T02:01:39;41.97;;;27.87;;
14611;SDS011;7392;52.078;11.650;2023-02-11T02:04:13;39.17;;;26.20;;
14611;SDS011;7392;52.078;11.650;2023-02-11T02:06:46;38.93;;;28.20;;
14611;SDS011;7392;52.078;11.650;2023-02-11T02:09:18;33.10;;;24.63;;
14611;SDS011;7392;52.078;11.650;2023-02-11T02:11:49;38.17;;;27.93;;
14611;SDS011;7392;52.078;11.650;2023-02-11T02:14:17;35.43;;;25.33;;
14611;SDS011;7392;52.078;11.650;2023-02-11T02:16:45;35.60;;;25.90;;
14611;SDS011;7392;52.078;11.650;2023-02-11T02:19:22;38.13;;;26.87;;
14611;SDS011;7392;52.078;11.650;2023-02-11T02:22:25;35.60;;;25.53;;
14611;SDS011;7392;52.078;11.650;2023-02-11T02:25:12;36.90;;;25.27;;
14611;SDS011;7392;52.078;11.650;2023-02-11T02:27:49;35.77;;;26.40;;
14611;SDS011;7392;52.078;11.650;2023-02-11T02:30:39;36.87;;;27.53;;
14611;SDS011;7392;52.078;11.650;2023-02-11T02:33:29;39.27;;;28.00;;
14611;SDS011;7392;52.078;11.650;2023-02-11T02:36:05;38.93;;;28.27;;
14611;SDS011;7392;52.078;11.650;2023-02-11T02:38:39;38.63;;;27.33;;
14611;SDS011;7392;52.078;11.650;2023-02-11T02:41:14;41.07;;;28.63;;
14611;SDS011;7392;52.078;11.650;2023-02-11T02:43:44;44.30;;;29.87;;
14611;SDS011;7392;52.078;11.650;2023-02-11T02:46:15;41.60;;;28.97;;
14611;SDS011;7392;52.078;11.650;2023-02-11T02:48:46;40.70;;;29.37;;
14611;SDS011;7392;52.078;11.650;2023-02-11T02:51:28;44.20;;;30.37;;
14611;SDS011;7392;52.078;11.650;2023-02-11T02:54:28;41.53;;;29.67;;
14611;SDS011;7392;52.078;11.650;2023-02-11T02:57:08;44.03;;;30.20;;
14611;SDS011;7392;52.078;11.650;2023-02-11T02:59:54;41.50;;;28.93;;
14611;SDS011;7392;52.078;11.650;2023-02-11T03:02:32;41.50;;;29.63;;
14611;SDS011;7392;52.078;11.650;2023-02-11T03:05:07;42.27;;;29.57;;
14611;SDS011;7392;52.078;11.650;2023-02-11T03:07:43;46.63;;;30.37;;
14611;SDS011;7392;52.078;11.650;2023-02-11T03:10:18;42.90;;;29.93;;
14611;SDS011;7392;52.078;11.650;2023-02-11T03:12:51;45.17;;;31.53;;
14611;SDS011;7392;52.078;11.650;2023-02-11T03:15:21;40.90;;;29.47;;
14611;SDS011;7392;52.078;11.650;2023-02-11T03:17:52;45.43;;;31.43;;
14611;SDS011;7392;52.078;11.650;2023-02-11T03:20:25;42.57;;;30.73;;
14611;SDS011;7392;52.078;11.650;2023-02-11T03:22:56;40.50;;;29.57;;
14611;SDS011;7392;52.078;11.650;2023-02-11T03:25:29;36.03;;;27.53;;
14611;SDS011;7392;52.078;11.650;2023-02-11T03:28:02;45.00;;;29.73;;
14611;SDS011;7392;52.078;11.650;2023-02-11T03:30:36;45.53;;;28.77;;
14611;SDS011;7392;52.078;11.650;2023-02-11T03:33:07;37.40;;;27.50;;
14611;SDS011;7392;52.078;11.650;2023-02-11T03:35:42;41.33;;;29.37;;
14611;SDS011;7392;52.078;11.650;2023-02-11T03:38:16;37.37;;;27.83;;
14611;SDS011;7392;52.078;11.650;2023-02-11T03:40:48;39.53;;;26.67;;
14611;SDS011;7392;52.078;11.650;2023-02-11T03:43:17;38.97;;;29.43;;
14611;SDS011;7392;52.078;11.650;2023-02-11T03:45:48;45.80;;;29.70;;
14611;SDS011;7392;52.078;11.650;2023-02-11T03:48:21;44.03;;;31.33;;
14611;SDS011;7392;52.078;11.650;2023-02-11T03:50:53;43.73;;;31.43;;
14611;SDS011;7392;52.078;11.650;2023-02-11T03:53:23;49.67;;;31.97;;
14611;SDS011;7392;52.078;11.650;2023-02-11T03:55:51;42.20;;;29.90;;
14611;SDS011;7392;52.078;11.650;2023-02-11T03:58:22;43.67;;;30.90;;
14611;SDS011;7392;52.078;11.650;2023-02-11T04:00:49;42.27;;;30.00;;
14611;SDS011;7392;52.078;11.650;2023-02-11T04:03:17;41.17;;;30.70;;
14611;SDS011;7392;52.078;11.650;2023-02-11T04:05:45;45.27;;;31.93;;
14611;SDS011;7392;52.078;11.650;2023-02-11T04:08:15;41.63;;;29.70;;
14611;SDS011;7392;52.078;11.650;2023-02-11T04:10:42;42.67;;;31.10;;
14611;SDS011;7392;52.078;11.650;2023-02-11T04:13:10;44.70;;;31.07;;
14611;SDS011;7392;52.078;11.650;2023-02-11T04:15:37;44.37;;;30.87;;
14611;SDS011;7392;52.078;11.650;2023-02-11T04:18:05;42.73;;;31.33;;
14611;SDS011;7392;52.078;11.650;2023-02-11T04:20:33;46.40;;;31.53;;
14611;SDS011;7392;52.078;11.650;2023-02-11T04:23:01;49.03;;;33.27;;
14611;SDS011;7392;52.078;11.650;2023-02-11T04:25:30;44.80;;;32.67;;
14611;SDS011;7392;52.078;11.650;2023-02-11T04:27:57;44.30;;;32.53;;
14611;SDS011;7392;52.078;11.650;2023-02-11T04:30:25;42.87;;;31.70;;
14611;SDS011;7392;52.078;11.650;2023-02-11T04:32:53;44.40;;;32.10;;
14611;SDS011;7392;52.078;11.650;2023-02-11T04:35:21;46.20;;;32.37;;
14611;SDS011;7392;52.078;11.650;2023-02-11T04:37:49;44.37;;;31.43;;
14611;SDS011;7392;52.078;11.650;2023-02-11T04:40:16;45.47;;;31.80;;
14611;SDS011;7392;52.078;11.650;2023-02-11T04:42:45;44.40;;;30.87;;
14611;SDS011;7392;52.078;11.650;2023-02-11T04:45:13;45.20;;;31.93;;
14611;SDS011;7392;52.078;11.650;2023-02-11T04:47:41;46.50;;;32.20;;
14611;SDS011;7392;52.078;11.650;2023-02-11T04:50:08;42.30;;;30.63;;
14611;SDS011;7392;52.078;11.650;2023-02-11T04:52:36;45.53;;;32.57;;
14611;SDS011;7392;52.078;11.650;2023-02-11T04:55:04;42.73;;;29.63;;
14611;SDS011;7392;52.078;11.650;2023-02-11T04:57:32;43.23;;;31.30;;
14611;SDS011;7392;52.078;11.650;2023-02-11T05:00:02;41.67;;;30.47;;
14611;SDS011;7392;52.078;11.650;2023-02-11T05:02:30;44.00;;;29.90;;
14611;SDS011;7392;52.078;11.650;2023-02-11T05:04:58;41.40;;;29.10;;
14611;SDS011;7392;52.078;11.650;2023-02-11T05:07:26;46.80;;;30.50;;
14611;SDS011;7392;52.078;11.650;2023-02-11T05:09:54;41.00;;;29.50;;
14611;SDS011;7392;52.078;11.650;2023-02-11T05:12:21;40.90;;;30.43;;
14611;SDS011;7392;52.078;11.650;2023-02-11T05:14:49;43.43;;;30.33;;
14611;SDS011;7392;52.078;11.650;2023-02-11T05:17:18;40.23;;;30.40;;
14611;SDS011;7392;52.078;11.650;2023-02-11T05:19:45;44.73;;;31.37;;
14611;SDS011;7392;52.078;11.650;2023-02-11T05:22:13;43.97;;;29.77;;
14611;SDS011;7392;52.078;11.650;2023-02-11T05:24:41;39.93;;;30.00;;
14611;SDS011;7392;52.078;11.650;2023-02-11T05:27:08;42.63;;;31.10;;
14611;SDS011;7392;52.078;11.650;2023-02-11T05:29:36;37.97;;;28.80;;
14611;SDS011;7392;52.078;11.650;2023-02-11T05:32:04;40.47;;;29.60;;
14611;SDS011;7392;52.078;11.650;2023-02-11T05:34:33;45.00;;;30.23;;
14611;SDS011;7392;52.078;11.650;2023-02-11T05:37:01;43.43;;;29.50;;
14611;SDS011;7392;52.078;11.650;2023-02-11T05:39:29;36.40;;;28.53;;
14611;SDS011;7392;52.078;11.650;2023-02-11T05:41:56;40.93;;;29.17;;
14611;SDS011;7392;52.078;11.650;2023-02-11T05:44:24;41.07;;;29.73;;
14611;SDS011;7392;52.078;11.650;2023-02-11T05:46:52;38.50;;;28.63;;
14611;SDS011;7392;52.078;11.650;2023-02-11T05:49:19;42.10;;;29.10;;
14611;SDS011;7392;52.078;11.650;2023-02-11T05:51:49;42.10;;;28.40;;
14611;SDS011;7392;52.078;11.650;2023-02-11T05:54:16;40.80;;;29.87;;
14611;SDS011;7392;52.078;11.650;2023-02-11T05:56:44;39.77;;;29.13;;
14611;SDS011;7392;52.078;11.650;2023-02-11T05:59:12;38.90;;;29.70;;
14611;SDS011;7392;52.078;11.650;2023-02-11T06:01:40;36.83;;;28.70;;
14611;SDS011;7392;52.078;11.650;2023-02-11T06:04:08;41.30;;;30.53;;
14611;SDS011;7392;52.078;11.650;2023-02-11T06:06:36;39.20;;;27.87;;
14611;SDS011;7392;52.078;11.650;2023-02-11T06:09:05;41.83;;;30.10;;
14611;SDS011;7392;52.078;11.650;2023-02-11T06:11:33;41.73;;;29.90;;
14611;SDS011;7392;52.078;11.650;2023-02-11T06:14:00;35.97;;;27.67;;
14611;SDS011;7392;52.078;11.650;2023-02-11T06:16:28;39.10;;;29.50;;
14611;SDS011;7392;52.078;11.650;2023-02-11T06:18:56;39.03;;;28.67;;
14611;SDS011;7392;52.078;11.650;2023-02-11T06:21:23;39.13;;;28.77;;
14611;SDS011;7392;52.078;11.650;2023-02-11T06:24:06;40.17;;;30.10;;
14611;SDS011;7392;52.078;11.650;2023-02-11T06:26:34;37.73;;;28.13;;
14611;SDS011;7392;52.078;11.650;2023-02-11T06:29:02;36.53;;;27.37;;
14611;SDS011;7392;52.078;11.650;2023-02-11T06:31:30;35.53;;;27.53;;
14611;SDS011;7392;52.078;11.650;2023-02-11T06:33:58;37.17;;;28.10;;
14611;SDS011;7392;52.078;11.650;2023-02-11T06:36:25;35.97;;;27.40;;
14611;SDS011;7392;52.078;11.650;2023-02-11T06:38:53;36.77;;;26.67;;
14611;SDS011;7392;52.078;11.650;2023-02-11T06:41:22;35.53;;;25.93;;
14611;SDS011;7392;52.078;11.650;2023-02-11T06:43:51;32.67;;;26.13;;
14611;SDS011;7392;52.078;11.650;2023-02-11T06:46:19;34.03;;;25.77;;
14611;SDS011;7392;52.078;11.650;2023-02-11T06:48:48;34.57;;;25.30;;
14611;SDS011;7392;52.078;11.650;2023-02-11T06:51:15;32.83;;;25.07;;
14611;SDS011;7392;52.078;11.650;2023-02-11T06:53:43;29.50;;;23.67;;
14611;SDS011;7392;52.078;11.650;2023-02-11T06:56:13;27.83;;;22.47;;
14611;SDS011;7392;52.078;11.650;2023-02-11T06:58:43;29.33;;;22.93;;
14611;SDS011;7392;52.078;11.650;2023-02-11T07:01:12;27.97;;;22.17;;
14611;SDS011;7392;52.078;11.650;2023-02-11T07:03:42;27.60;;;21.90;;
14611;SDS011;7392;52.078;11.650;2023-02-11T07:06:11;26.53;;;20.83;;
14611;SDS011;7392;52.078;11.650;2023-02-11T07:08:40;25.57;;;21.20;;
14611;SDS011;7392;52.078;11.650;2023-02-11T07:11:11;27.37;;;22.00;;
14611;SDS011;7392;52.078;11.650;2023-02-11T07:13:40;25.27;;;20.40;;
14611;SDS011;7392;52.078;11.650;2023-02-11T07:16:11;25.27;;;20.87;;
14611;SDS011;7392;52.078;11.650;2023-02-11T07:18:40;23.17;;;19.43;;
14611;SDS011;7392;52.078;11.650;2023-02-11T07:21:09;25.30;;;20.10;;
14611;SDS011;7392;52.078;11.650;2023-02-11T07:23:39;27.53;;;19.77;;
14611;SDS011;7392;52.078;11.650;2023-02-11T07:26:07;22.87;;;19.47;;
14611;SDS011;7392;52.078;11.650;2023-02-11T07:28:36;22.60;;;20.07;;
14611;SDS011;7392;52.078;11.650;2023-02-11T07:31:06;23.73;;;20.60;;
14611;SDS011;7392;52.078;11.650;2023-02-11T07:33:35;23.17;;;19.13;;
14611;SDS011;7392;52.078;11.650;2023-02-11T07:36:04;25.13;;;20.07;;
14611;SDS011;7392;52.078;11.650;2023-02-11T07:38:34;22.27;;;19.50;;
14611;SDS011;7392;52.078;11.650;2023-02-11T07:41:03;22.40;;;18.17;;
14611;SDS011;7392;52.078;11.650;2023-02-11T07:43:32;21.43;;;19.10;;
14611;SDS011;7392;52.078;11.650;2023-02-11T07:46:01;23.17;;;19.17;;
14611;SDS011;7392;52.078;11.650;2023-02-11T07:48:29;23.80;;;19.83;;
14611;SDS011;7392;52.078;11.650;2023-02-11T07:51:05;23.60;;;19.10;;
14611;SDS011;7392;52.078;11.650;2023-02-11T07:53:33;21.37;;;18.80;;
14611;SDS011;7392;52.078;11.650;2023-02-11T07:56:01;23.80;;;19.53;;
14611;SDS011;7392;52.078;11.650;2023-02-11T07:58:29;25.00;;;19.83;;
14611;SDS011;7392;52.078;11.650;2023-02-11T08:01:01;22.50;;;19.37;;
14611;SDS011;7392;52.078;11.650;2023-02-11T08:03:29;22.57;;;19.57;;
14611;SDS011;7392;52.078;11.650;2023-02-11T08:05:57;22.33;;;19.50;;
14611;SDS011;7392;52.078;11.650;2023-02-11T08:08:26;24.53;;;20.07;;
14611;SDS011;7392;52.078;11.650;2023-02-11T08:10:54;23.50;;;19.47;;
14611;SDS011;7392;52.078;11.650;2023-02-11T08:13:21;23.43;;;20.47;;
14611;SDS011;7392;52.078;11.650;2023-02-11T08:15:49;22.63;;;19.17;;
14611;SDS011;7392;52.078;11.650;2023-02-11T08:18:17;22.03;;;19.37;;
14611;SDS011;7392;52.078;11.650;2023-02-11T08:20:45;23.20;;;19.73;;
14611;SDS011;7392;52.078;11.650;2023-02-11T08:23:12;21.80;;;18.53;;
14611;SDS011;7392;52.078;11.650;2023-02-11T08:25:41;23.47;;;19.30;;
14611;SDS011;7392;52.078;11.650;2023-02-11T08:28:09;24.37;;;19.67;;
14611;SDS011;7392;52.078;11.650;2023-02-11T08:30:37;22.77;;;20.23;;
14611;SDS011;7392;52.078;11.650;2023-02-11T08:33:04;26.77;;;19.87;;
14611;SDS011;7392;52.078;11.650;2023-02-11T08:35:33;27.00;;;21.17;;
14611;SDS011;7392;52.078;11.650;2023-02-11T08:38:01;28.57;;;20.67;;
14611;SDS011;7392;52.078;11.650;2023-02-11T08:40:29;25.23;;;21.57;;
14611;SDS011;7392;52.078;11.650;2023-02-11T08:42:58;26.87;;;21.30;;
14611;SDS011;7392;52.078;11.650;2023-02-11T08:45:26;27.47;;;21.77;;
14611;SDS011;7392;52.078;11.650;2023-02-11T08:47:53;26.97;;;22.27;;
14611;SDS011;7392;52.078;11.650;2023-02-11T08:50:21;29.80;;;23.50;;
14611;SDS011;7392;52.078;11.650;2023-02-11T08:52:49;26.80;;;21.90;;
14611;SDS011;7392;52.078;11.650;2023-02-11T08:55:17;29.80;;;22.80;;
14611;SDS011;7392;52.078;11.650;2023-02-11T08:57:45;29.17;;;23.33;;
14611;SDS011;7392;52.078;11.650;2023-02-11T09:00:15;28.80;;;23.83;;
14611;SDS011;7392;52.078;11.650;2023-02-11T09:02:44;30.53;;;23.90;;
14611;SDS011;7392;52.078;11.650;2023-02-11T09:05:12;29.53;;;23.57;;
14611;SDS011;7392;52.078;11.650;2023-02-11T09:07:39;35.70;;;24.47;;
14611;SDS011;7392;52.078;11.650;2023-02-11T09:10:07;29.17;;;24.67;;
14611;SDS011;7392;52.078;11.650;2023-02-11T09:12:35;29.57;;;23.60;;
14611;SDS011;7392;52.078;11.650;2023-02-11T09:15:02;30.80;;;24.40;;
14611;SDS011;7392;52.078;11.650;2023-02-11T09:17:32;29.87;;;23.17;;
14611;SDS011;7392;52.078;11.650;2023-02-11T09:19:59;34.40;;;24.87;;
14611;SDS011;7392;52.078;11.650;2023-02-11T09:22:27;36.20;;;25.93;;
14611;SDS011;7392;52.078;11.650;2023-02-11T09:24:55;32.57;;;25.80;;
14611;SDS011;7392;52.078;11.650;2023-02-11T09:27:22;33.40;;;27.03;;
14611;SDS011;7392;52.078;11.650;2023-02-11T09:29:50;32.43;;;25.77;;
14611;SDS011;7392;52.078;11.650;2023-02-11T09:32:18;35.53;;;27.33;;
14611;SDS011;7392;52.078;11.650;2023-02-11T09:34:47;33.07;;;26.10;;
14611;SDS011;7392;52.078;11.650;2023-02-11T09:37:14;34.23;;;26.43;;
14611;SDS011;7392;52.078;11.650;2023-02-11T09:39:42;37.17;;;28.83;;
14611;SDS011;7392;52.078;11.650;2023-02-11T09:45:12;31.90;;;26.23;;
14611;SDS011;7392;52.078;11.650;2023-02-11T09:47:48;36.90;;;28.17;;
14611;SDS011;7392;52.078;11.650;2023-02-11T09:50:23;37.10;;;26.97;;
14611;SDS011;7392;52.078;11.650;2023-02-11T09:52:56;37.17;;;28.27;;
14611;SDS011;7392;52.078;11.650;2023-02-11T09:55:26;33.67;;;26.20;;
14611;SDS011;7392;52.078;11.650;2023-02-11T09:57:56;29.40;;;24.60;;
14611;SDS011;7392;52.078;11.650;2023-02-11T10:00:26;36.70;;;27.03;;
14611;SDS011;7392;52.078;11.650;2023-02-11T10:03:10;33.80;;;26.50;;
14611;SDS011;7392;52.078;11.650;2023-02-11T10:05:53;32.87;;;26.07;;
14611;SDS011;7392;52.078;11.650;2023-02-11T10:08:33;36.13;;;27.17;;
14611;SDS011;7392;52.078;11.650;2023-02-11T10:11:12;31.20;;;25.87;;
14611;SDS011;7392;52.078;11.650;2023-02-11T10:14:00;35.40;;;26.43;;
14611;SDS011;7392;52.078;11.650;2023-02-11T10:16:42;34.60;;;28.23;;
14611;SDS011;7392;52.078;11.650;2023-02-11T10:19:23;37.57;;;28.00;;
14611;SDS011;7392;52.078;11.650;2023-02-11T10:22:05;36.07;;;27.03;;
14611;SDS011;7392;52.078;11.650;2023-02-11T10:24:38;34.10;;;27.00;;
14611;SDS011;7392;52.078;11.650;2023-02-11T10:27:11;35.00;;;26.37;;
14611;SDS011;7392;52.078;11.650;2023-02-11T10:29:43;35.87;;;27.23;;
14611;SDS011;7392;52.078;11.650;2023-02-11T10:32:14;32.60;;;26.97;;
14611;SDS011;7392;52.078;11.650;2023-02-11T10:34:53;32.80;;;26.40;;
14611;SDS011;7392;52.078;11.650;2023-02-11T10:37:26;38.97;;;27.83;;
14611;SDS011;7392;52.078;11.650;2023-02-11T10:39:54;33.23;;;27.13;;
14611;SDS011;7392;52.078;11.650;2023-02-11T10:42:21;33.63;;;26.00;;
14611;SDS011;7392;52.078;11.650;2023-02-11T10:44:54;37.07;;;28.03;;
14611;SDS011;7392;52.078;11.650;2023-02-11T10:47:26;34.43;;;27.10;;
14611;SDS011;7392;52.078;11.650;2023-02-11T10:49:57;40.90;;;29.53;;
14611;SDS011;7392;52.078;11.650;2023-02-11T10:52:30;34.90;;;28.40;;
14611;SDS011;7392;52.078;11.650;2023-02-11T10:55:02;34.50;;;26.03;;
14611;SDS011;7392;52.078;11.650;2023-02-11T10:57:33;35.97;;;26.70;;
14611;SDS011;7392;52.078;11.650;2023-02-11T11:00:05;32.90;;;25.13;;
14611;SDS011;7392;52.078;11.650;2023-02-11T11:02:51;35.33;;;27.30;;
14611;SDS011;7392;52.078;11.650;2023-02-11T11:05:22;39.37;;;28.50;;
14611;SDS011;7392;52.078;11.650;2023-02-11T11:07:57;34.67;;;27.47;;
14611;SDS011;7392;52.078;11.650;2023-02-11T11:10:27;38.30;;;28.20;;
14611;SDS011;7392;52.078;11.650;2023-02-11T11:12:57;32.83;;;26.00;;
14611;SDS011;7392;52.078;11.650;2023-02-11T11:15:25;35.77;;;27.63;;
14611;SDS011;7392;52.078;11.650;2023-02-11T11:18:09;33.63;;;27.13;;
14611;SDS011;7392;52.078;11.650;2023-02-11T11:20:53;38.27;;;27.80;;
14611;SDS011;7392;52.078;11.650;2023-02-11T11:23:24;36.23;;;26.77;;
14611;SDS011;7392;52.078;11.650;2023-02-11T11:25:59;30.93;;;25.07;;
14611;SDS011;7392;52.078;11.650;2023-02-11T11:28:30;32.53;;;26.20;;
14611;SDS011;7392;52.078;11.650;2023-02-11T11:31:04;29.77;;;24.40;;
14611;SDS011;7392;52.078;11.650;2023-02-11T11:33:39;36.77;;;27.33;;
14611;SDS011;7392;52.078;11.650;2023-02-11T11:36:09;34.90;;;27.50;;
14611;SDS011;7392;52.078;11.650;2023-02-11T11:38:43;31.23;;;24.83;;
14611;SDS011;7392;52.078;11.650;2023-02-11T11:41:16;41.03;;;28.07;;
14611;SDS011;7392;52.078;11.650;2023-02-11T11:43:54;36.07;;;26.63;;
14611;SDS011;7392;52.078;11.650;2023-02-11T11:46:23;30.37;;;24.60;;
14611;SDS011;7392;52.078;11.650;2023-02-11T11:48:54;32.77;;;24.17;;
14611;SDS011;7392;52.078;11.650;2023-02-11T11:51:27;28.50;;;23.40;;
14611;SDS011;7392;52.078;11.650;2023-02-11T11:53:58;32.07;;;24.60;;
14611;SDS011;7392;52.078;11.650;2023-02-11T11:56:29;33.57;;;26.03;;
14611;SDS011;7392;52.078;11.650;2023-02-11T11:59:00;34.90;;;27.57;;
14611;SDS011;7392;52.078;11.650;2023-02-11T12:01:34;33.27;;;25.47;;
14611;SDS011;7392;52.078;11.650;2023-02-11T12:04:18;30.53;;;23.77;;
14611;SDS011;7392;52.078;11.650;2023-02-11T12:07:06;31.13;;;23.97;;
14611;SDS011;7392;52.078;11.650;2023-02-11T12:09:42;31.33;;;24.13;;
14611;SDS011;7392;52.078;11.650;2023-02-11T12:12:23;29.87;;;24.20;;
14611;SDS011;7392;52.078;11.650;2023-02-11T12:15:01;27.70;;;22.30;;
14611;SDS011;7392;52.078;11.650;2023-02-11T12:17:42;27.53;;;22.83;;
14611;SDS011;7392;52.078;11.650;2023-02-11T12:20:29;26.90;;;21.87;;
14611;SDS011;7392;52.078;11.650;2023-02-11T12:23:08;28.43;;;23.03;;
14611;SDS011;7392;52.078;11.650;2023-02-11T12:25:52;25.07;;;21.37;;
14611;SDS011;7392;52.078;11.650;2023-02-11T12:28:28;29.03;;;21.47;;
14611;SDS011;7392;52.078;11.650;2023-02-11T12:31:11;26.17;;;20.73;;
14611;SDS011;7392;52.078;11.650;2023-02-11T12:36:46;23.97;;;18.87;;
14611;SDS011;7392;52.078;11.650;2023-02-11T12:39:31;24.60;;;19.80;;
14611;SDS011;7392;52.078;11.650;2023-02-11T12:45:18;23.13;;;19.03;;
14611;SDS011;7392;52.078;11.650;2023-02-11T12:47:59;22.87;;;18.57;;
14611;SDS011;7392;52.078;11.650;2023-02-11T12:50:38;23.60;;;17.57;;
14611;SDS011;7392;52.078;11.650;2023-02-11T12:53:19;21.53;;;18.13;;
14611;SDS011;7392;52.078;11.650;2023-02-11T12:56:02;23.93;;;18.43;;
14611;SDS011;7392;52.078;11.650;2023-02-11T12:58:36;21.97;;;17.80;;
14611;SDS011;7392;52.078;11.650;2023-02-11T13:01:13;22.50;;;17.80;;
14611;SDS011;7392;52.078;11.650;2023-02-11T13:03:46;24.50;;;17.97;;
14611;SDS011;7392;52.078;11.650;2023-02-11T13:06:19;19.63;;;17.10;;
14611;SDS011;7392;52.078;11.650;2023-02-11T13:08:51;21.20;;;16.97;;
14611;SDS011;7392;52.078;11.650;2023-02-11T13:11:25;19.83;;;16.50;;
14611;SDS011;7392;52.078;11.650;2023-02-11T13:13:56;22.40;;;16.67;;
14611;SDS011;7392;52.078;11.650;2023-02-11T13:16:31;17.77;;;14.93;;
14611;SDS011;7392;52.078;11.650;2023-02-11T13:19:05;17.70;;;14.23;;
14611;SDS011;7392;52.078;11.650;2023-02-11T13:21:53;18.87;;;14.83;;
14611;SDS011;7392;52.078;11.650;2023-02-11T13:24:31;16.40;;;14.60;;
14611;SDS011;7392;52.078;11.650;2023-02-11T13:27:09;18.17;;;14.57;;
14611;SDS011;7392;52.078;11.650;2023-02-11T13:30:02;20.30;;;15.40;;
14611;SDS011;7392;52.078;11.650;2023-02-11T13:33:01;20.27;;;16.53;;
14611;SDS011;7392;52.078;11.650;2023-02-11T13:35:32;19.23;;;15.40;;
14611;SDS011;7392;52.078;11.650;2023-02-11T13:38:02;20.73;;;16.47;;
14611;SDS011;7392;52.078;11.650;2023-02-11T13:40:33;19.33;;;15.97;;
14611;SDS011;7392;52.078;11.650;2023-02-11T13:43:03;18.97;;;15.57;;
14611;SDS011;7392;52.078;11.650;2023-02-11T13:45:35;19.27;;;16.23;;
14611;SDS011;7392;52.078;11.650;2023-02-11T13:48:12;20.13;;;15.37;;
14611;SDS011;7392;52.078;11.650;2023-02-11T13:50:44;16.57;;;13.47;;
14611;SDS011;7392;52.078;11.650;2023-02-11T13:53:14;14.90;;;12.50;;
14611;SDS011;7392;52.078;11.650;2023-02-11T13:55:45;17.40;;;13.50;;
14611;SDS011;7392;52.078;11.650;2023-02-11T13:58:15;19.90;;;16.07;;
14611;SDS011;7392;52.078;11.650;2023-02-11T14:00:47;16.60;;;13.97;;
14611;SDS011;7392;52.078;11.650;2023-02-11T14:03:22;16.03;;;13.73;;
14611;SDS011;7392;52.078;11.650;2023-02-11T14:06:13;15.33;;;13.63;;
14611;SDS011;7392;52.078;11.650;2023-02-11T14:09:07;13.80;;;12.27;;
14611;SDS011;7392;52.078;11.650;2023-02-11T14:15:00;17.83;;;12.97;;
14611;SDS011;7392;52.078;11.650;2023-02-11T14:17:48;16.77;;;13.23;;
14611;SDS011;7392;52.078;11.650;2023-02-11T14:20:31;14.77;;;12.57;;
14611;SDS011;7392;52.078;11.650;2023-02-11T14:23:02;15.37;;;12.40;;
14611;SDS011;7392;52.078;11.650;2023-02-11T14:25:30;14.30;;;12.00;;
14611;SDS011;7392;52.078;11.650;2023-02-11T14:28:00;15.30;;;12.90;;
14611;SDS011;7392;52.078;11.650;2023-02-11T14:30:44;15.20;;;11.97;;
14611;SDS011;7392;52.078;11.650;2023-02-11T14:36:33;13.93;;;11.37;;
14611;SDS011;7392;52.078;11.650;2023-02-11T14:39:14;13.03;;;11.07;;
14611;SDS011;7392;52.078;11.650;2023-02-11T14:41:50;12.70;;;11.23;;
14611;SDS011;7392;52.078;11.650;2023-02-11T14:44:19;14.13;;;11.73;;
14611;SDS011;7392;52.078;11.650;2023-02-11T14:46:49;12.30;;;11.03;;
14611;SDS011;7392;52.078;11.650;2023-02-11T14:49:22;11.00;;;9.30;;
14611;SDS011;7392;52.078;11.650;2023-02-11T14:51:52;12.07;;;10.33;;
14611;SDS011;7392;52.078;11.650;2023-02-11T14:54:25;15.00;;;10.37;;
14611;SDS011;7392;52.078;11.650;2023-02-11T14:57:04;13.83;;;10.17;;
14611;SDS011;7392;52.078;11.650;2023-02-11T14:59:33;13.77;;;10.83;;
14611;SDS011;7392;52.078;11.650;2023-02-11T15:02:01;13.13;;;10.57;;
14611;SDS011;7392;52.078;11.650;2023-02-11T15:04:31;12.00;;;10.77;;
14611;SDS011;7392;52.078;11.650;2023-02-11T15:07:02;12.60;;;10.63;;